sensor_id;sensor_type;location;lat;lon;timestamp;P1;durP1;ratioP1;P2;durP2;ratioP2
74974;SDS011;68459;50.836;19.138;2023-04-06T00:00:54;12.45;;;7.28;;
74974;SDS011;68459;50.836;19.138;2023-04-06T00:03:58;17.65;;;7.43;;
74974;SDS011;68459;50.836;19.138;2023-04-06T00:07:02;19.17;;;7.37;;
74974;SDS011;68459;50.836;19.138;2023-04-06T00:10:06;16.33;;;7.70;;
74974;SDS011;68459;50.836;19.138;2023-04-06T00:13:12;19.23;;;8.35;;
74974;SDS011;68459;50.836;19.138;2023-04-06T00:16:17;18.08;;;8.07;;
74974;SDS011;68459;50.836;19.138;2023-04-06T00:19:25;17.57;;;7.27;;
74974;SDS011;68459;50.836;19.138;2023-04-06T00:22:28;16.95;;;7.68;;
74974;SDS011;68459;50.836;19.138;2023-04-06T00:25:32;17.08;;;8.38;;
74974;SDS011;68459;50.836;19.138;2023-04-06T00:28:36;14.10;;;7.10;;
74974;SDS011;68459;50.836;19.138;2023-04-06T00:31:43;14.20;;;8.13;;
74974;SDS011;68459;50.836;19.138;2023-04-06T00:34:47;16.98;;;8.05;;
74974;SDS011;68459;50.836;19.138;2023-04-06T00:37:51;20.58;;;7.82;;
74974;SDS011;68459;50.836;19.138;2023-04-06T00:40:55;16.57;;;7.57;;
74974;SDS011;68459;50.836;19.138;2023-04-06T00:43:59;15.85;;;6.95;;
74974;SDS011;68459;50.836;19.138;2023-04-06T00:47:04;12.85;;;6.88;;
74974;SDS011;68459;50.836;19.138;2023-04-06T00:50:08;15.90;;;7.37;;
74974;SDS011;68459;50.836;19.138;2023-04-06T00:53:12;16.33;;;8.05;;
74974;SDS011;68459;50.836;19.138;2023-04-06T00:56:16;18.70;;;8.13;;
74974;SDS011;68459;50.836;19.138;2023-04-06T00:59:27;16.08;;;7.75;;
74974;SDS011;68459;50.836;19.138;2023-04-06T01:02:35;18.58;;;9.05;;
74974;SDS011;68459;50.836;19.138;2023-04-06T01:05:39;15.13;;;7.28;;
74974;SDS011;68459;50.836;19.138;2023-04-06T01:08:52;16.30;;;7.03;;
74974;SDS011;68459;50.836;19.138;2023-04-06T01:11:59;14.60;;;7.00;;
74974;SDS011;68459;50.836;19.138;2023-04-06T01:15:05;15.02;;;6.95;;
74974;SDS011;68459;50.836;19.138;2023-04-06T01:18:16;13.77;;;6.80;;
74974;SDS011;68459;50.836;19.138;2023-04-06T01:21:30;14.87;;;7.03;;
74974;SDS011;68459;50.836;19.138;2023-04-06T01:24:49;21.17;;;7.93;;
74974;SDS011;68459;50.836;19.138;2023-04-06T01:28:01;17.55;;;7.90;;
74974;SDS011;68459;50.836;19.138;2023-04-06T01:31:40;15.52;;;7.22;;
74974;SDS011;68459;50.836;19.138;2023-04-06T01:34:45;15.13;;;7.35;;
74974;SDS011;68459;50.836;19.138;2023-04-06T01:37:49;18.92;;;7.30;;
74974;SDS011;68459;50.836;19.138;2023-04-06T01:41:01;14.85;;;7.25;;
74974;SDS011;68459;50.836;19.138;2023-04-06T01:44:16;14.23;;;8.00;;
74974;SDS011;68459;50.836;19.138;2023-04-06T01:47:27;12.07;;;7.35;;
74974;SDS011;68459;50.836;19.138;2023-04-06T01:50:31;18.73;;;7.70;;
74974;SDS011;68459;50.836;19.138;2023-04-06T01:53:35;15.40;;;7.63;;
74974;SDS011;68459;50.836;19.138;2023-04-06T01:56:43;15.98;;;8.25;;
74974;SDS011;68459;50.836;19.138;2023-04-06T02:00:01;23.63;;;8.15;;
74974;SDS011;68459;50.836;19.138;2023-04-06T02:03:14;16.35;;;8.45;;
74974;SDS011;68459;50.836;19.138;2023-04-06T02:06:20;17.42;;;8.38;;
74974;SDS011;68459;50.836;19.138;2023-04-06T02:09:24;16.42;;;8.07;;
74974;SDS011;68459;50.836;19.138;2023-04-06T02:12:30;16.10;;;8.70;;
74974;SDS011;68459;50.836;19.138;2023-04-06T02:15:34;22.50;;;9.00;;
74974;SDS011;68459;50.836;19.138;2023-04-06T02:18:39;17.80;;;9.07;;
74974;SDS011;68459;50.836;19.138;2023-04-06T02:21:42;15.13;;;8.23;;
74974;SDS011;68459;50.836;19.138;2023-04-06T02:24:46;19.50;;;9.00;;
74974;SDS011;68459;50.836;19.138;2023-04-06T02:27:51;16.42;;;8.52;;
74974;SDS011;68459;50.836;19.138;2023-04-06T02:30:55;16.85;;;7.65;;
74974;SDS011;68459;50.836;19.138;2023-04-06T02:34:01;16.52;;;8.65;;
74974;SDS011;68459;50.836;19.138;2023-04-06T02:37:07;17.35;;;8.98;;
74974;SDS011;68459;50.836;19.138;2023-04-06T02:40:10;20.50;;;9.07;;
74974;SDS011;68459;50.836;19.138;2023-04-06T02:43:16;21.67;;;11.27;;
74974;SDS011;68459;50.836;19.138;2023-04-06T02:46:20;17.33;;;8.20;;
74974;SDS011;68459;50.836;19.138;2023-04-06T02:49:24;14.45;;;7.32;;
74974;SDS011;68459;50.836;19.138;2023-04-06T02:52:30;18.92;;;8.15;;
74974;SDS011;68459;50.836;19.138;2023-04-06T02:55:35;19.57;;;7.77;;
74974;SDS011;68459;50.836;19.138;2023-04-06T02:58:40;17.17;;;8.10;;
74974;SDS011;68459;50.836;19.138;2023-04-06T03:01:44;16.92;;;8.57;;
74974;SDS011;68459;50.836;19.138;2023-04-06T03:04:48;18.27;;;8.85;;
74974;SDS011;68459;50.836;19.138;2023-04-06T03:08:01;14.75;;;8.27;;
74974;SDS011;68459;50.836;19.138;2023-04-06T03:11:16;14.82;;;7.57;;
74974;SDS011;68459;50.836;19.138;2023-04-06T03:14:24;20.67;;;9.35;;
74974;SDS011;68459;50.836;19.138;2023-04-06T03:17:28;18.10;;;10.13;;
74974;SDS011;68459;50.836;19.138;2023-04-06T03:20:36;22.42;;;9.30;;
74974;SDS011;68459;50.836;19.138;2023-04-06T03:23:40;19.08;;;8.98;;
74974;SDS011;68459;50.836;19.138;2023-04-06T03:26:44;19.70;;;9.23;;
74974;SDS011;68459;50.836;19.138;2023-04-06T03:29:50;16.42;;;8.95;;
74974;SDS011;68459;50.836;19.138;2023-04-06T03:33:01;15.52;;;8.70;;
74974;SDS011;68459;50.836;19.138;2023-04-06T03:36:10;17.67;;;9.65;;
74974;SDS011;68459;50.836;19.138;2023-04-06T03:39:17;23.58;;;10.30;;
74974;SDS011;68459;50.836;19.138;2023-04-06T03:42:20;17.42;;;9.73;;
74974;SDS011;68459;50.836;19.138;2023-04-06T03:45:37;23.58;;;10.32;;
74974;SDS011;68459;50.836;19.138;2023-04-06T03:48:41;23.10;;;11.53;;
74974;SDS011;68459;50.836;19.138;2023-04-06T03:51:45;25.50;;;12.98;;
74974;SDS011;68459;50.836;19.138;2023-04-06T03:54:49;26.27;;;13.48;;
74974;SDS011;68459;50.836;19.138;2023-04-06T03:57:53;28.80;;;12.60;;
74974;SDS011;68459;50.836;19.138;2023-04-06T04:01:00;25.45;;;12.23;;
74974;SDS011;68459;50.836;19.138;2023-04-06T04:04:04;19.55;;;10.90;;
74974;SDS011;68459;50.836;19.138;2023-04-06T04:07:08;30.88;;;13.45;;
74974;SDS011;68459;50.836;19.138;2023-04-06T04:10:12;39.20;;;15.23;;
74974;SDS011;68459;50.836;19.138;2023-04-06T04:13:16;30.40;;;15.27;;
74974;SDS011;68459;50.836;19.138;2023-04-06T04:16:24;36.65;;;17.98;;
74974;SDS011;68459;50.836;19.138;2023-04-06T04:19:28;34.13;;;16.13;;
74974;SDS011;68459;50.836;19.138;2023-04-06T04:22:32;32.72;;;17.63;;
74974;SDS011;68459;50.836;19.138;2023-04-06T04:25:35;38.58;;;19.50;;
74974;SDS011;68459;50.836;19.138;2023-04-06T04:28:39;41.87;;;20.60;;
74974;SDS011;68459;50.836;19.138;2023-04-06T04:31:45;37.30;;;19.10;;
74974;SDS011;68459;50.836;19.138;2023-04-06T04:34:51;38.05;;;20.80;;
74974;SDS011;68459;50.836;19.138;2023-04-06T04:38:07;43.45;;;23.20;;
74974;SDS011;68459;50.836;19.138;2023-04-06T04:41:15;51.38;;;24.73;;
74974;SDS011;68459;50.836;19.138;2023-04-06T04:44:20;55.93;;;26.23;;
74974;SDS011;68459;50.836;19.138;2023-04-06T04:47:26;55.60;;;26.50;;
74974;SDS011;68459;50.836;19.138;2023-04-06T04:50:30;58.30;;;26.53;;
74974;SDS011;68459;50.836;19.138;2023-04-06T04:53:34;48.85;;;24.63;;
74974;SDS011;68459;50.836;19.138;2023-04-06T04:56:49;44.20;;;23.90;;
74974;SDS011;68459;50.836;19.138;2023-04-06T05:00:11;50.83;;;23.43;;
74974;SDS011;68459;50.836;19.138;2023-04-06T05:03:20;44.55;;;23.25;;
74974;SDS011;68459;50.836;19.138;2023-04-06T05:06:36;46.47;;;23.10;;
74974;SDS011;68459;50.836;19.138;2023-04-06T05:09:40;44.83;;;24.00;;
74974;SDS011;68459;50.836;19.138;2023-04-06T05:12:45;43.97;;;23.20;;
74974;SDS011;68459;50.836;19.138;2023-04-06T05:15:49;47.42;;;24.00;;
74974;SDS011;68459;50.836;19.138;2023-04-06T05:19:07;41.70;;;20.50;;
74974;SDS011;68459;50.836;19.138;2023-04-06T05:22:17;35.40;;;18.63;;
74974;SDS011;68459;50.836;19.138;2023-04-06T05:25:30;32.95;;;16.20;;
74974;SDS011;68459;50.836;19.138;2023-04-06T05:28:45;22.38;;;11.73;;
74974;SDS011;68459;50.836;19.138;2023-04-06T05:31:51;19.63;;;10.30;;
74974;SDS011;68459;50.836;19.138;2023-04-06T05:34:56;19.10;;;10.43;;
74974;SDS011;68459;50.836;19.138;2023-04-06T05:38:01;21.73;;;11.70;;
74974;SDS011;68459;50.836;19.138;2023-04-06T05:41:04;21.27;;;10.80;;
74974;SDS011;68459;50.836;19.138;2023-04-06T05:44:09;24.60;;;11.88;;
74974;SDS011;68459;50.836;19.138;2023-04-06T05:47:15;22.30;;;13.25;;
74974;SDS011;68459;50.836;19.138;2023-04-06T05:50:25;25.20;;;14.60;;
74974;SDS011;68459;50.836;19.138;2023-04-06T05:53:30;31.17;;;13.83;;
74974;SDS011;68459;50.836;19.138;2023-04-06T05:56:35;28.17;;;14.18;;
74974;SDS011;68459;50.836;19.138;2023-04-06T05:59:40;29.42;;;15.68;;
74974;SDS011;68459;50.836;19.138;2023-04-06T06:02:46;33.53;;;15.83;;
74974;SDS011;68459;50.836;19.138;2023-04-06T06:05:58;34.03;;;16.23;;
74974;SDS011;68459;50.836;19.138;2023-04-06T06:09:16;30.83;;;15.30;;
74974;SDS011;68459;50.836;19.138;2023-04-06T06:12:31;24.25;;;13.00;;
74974;SDS011;68459;50.836;19.138;2023-04-06T06:15:35;32.25;;;15.23;;
74974;SDS011;68459;50.836;19.138;2023-04-06T06:18:39;32.97;;;15.07;;
74974;SDS011;68459;50.836;19.138;2023-04-06T06:21:45;32.63;;;15.93;;
74974;SDS011;68459;50.836;19.138;2023-04-06T06:24:49;33.03;;;12.97;;
74974;SDS011;68459;50.836;19.138;2023-04-06T06:27:54;29.00;;;13.45;;
74974;SDS011;68459;50.836;19.138;2023-04-06T06:30:58;29.70;;;15.35;;
74974;SDS011;68459;50.836;19.138;2023-04-06T06:34:04;23.63;;;13.03;;
74974;SDS011;68459;50.836;19.138;2023-04-06T06:37:11;25.40;;;13.40;;
74974;SDS011;68459;50.836;19.138;2023-04-06T06:40:15;27.92;;;12.77;;
74974;SDS011;68459;50.836;19.138;2023-04-06T06:43:21;27.40;;;11.65;;
74974;SDS011;68459;50.836;19.138;2023-04-06T06:46:31;21.92;;;11.82;;
74974;SDS011;68459;50.836;19.138;2023-04-06T06:49:35;21.08;;;12.18;;
74974;SDS011;68459;50.836;19.138;2023-04-06T06:52:40;25.33;;;11.95;;
74974;SDS011;68459;50.836;19.138;2023-04-06T06:55:44;23.60;;;11.50;;
74974;SDS011;68459;50.836;19.138;2023-04-06T06:58:48;23.83;;;11.13;;
74974;SDS011;68459;50.836;19.138;2023-04-06T07:01:53;23.67;;;12.10;;
74974;SDS011;68459;50.836;19.138;2023-04-06T07:04:57;26.30;;;11.80;;
74974;SDS011;68459;50.836;19.138;2023-04-06T07:08:02;25.60;;;11.98;;
74974;SDS011;68459;50.836;19.138;2023-04-06T07:11:07;26.58;;;12.30;;
74974;SDS011;68459;50.836;19.138;2023-04-06T07:14:11;28.38;;;11.70;;
74974;SDS011;68459;50.836;19.138;2023-04-06T07:17:15;25.48;;;12.40;;
74974;SDS011;68459;50.836;19.138;2023-04-06T07:20:19;22.15;;;11.25;;
74974;SDS011;68459;50.836;19.138;2023-04-06T07:23:24;24.48;;;10.95;;
74974;SDS011;68459;50.836;19.138;2023-04-06T07:26:28;18.70;;;10.10;;
74974;SDS011;68459;50.836;19.138;2023-04-06T07:29:32;23.63;;;11.30;;
74974;SDS011;68459;50.836;19.138;2023-04-06T07:32:36;20.55;;;8.68;;
74974;SDS011;68459;50.836;19.138;2023-04-06T07:35:40;17.50;;;8.90;;
74974;SDS011;68459;50.836;19.138;2023-04-06T07:38:46;17.13;;;8.93;;
74974;SDS011;68459;50.836;19.138;2023-04-06T07:41:51;20.25;;;8.95;;
74974;SDS011;68459;50.836;19.138;2023-04-06T07:44:55;15.52;;;8.10;;
74974;SDS011;68459;50.836;19.138;2023-04-06T07:48:00;18.23;;;8.00;;
74974;SDS011;68459;50.836;19.138;2023-04-06T07:51:04;15.10;;;7.68;;
74974;SDS011;68459;50.836;19.138;2023-04-06T07:54:14;15.25;;;8.38;;
74974;SDS011;68459;50.836;19.138;2023-04-06T07:57:18;14.60;;;6.93;;
74974;SDS011;68459;50.836;19.138;2023-04-06T08:00:22;12.45;;;7.38;;
74974;SDS011;68459;50.836;19.138;2023-04-06T08:03:26;13.85;;;7.22;;
74974;SDS011;68459;50.836;19.138;2023-04-06T08:06:30;16.70;;;7.13;;
74974;SDS011;68459;50.836;19.138;2023-04-06T08:09:35;15.02;;;7.70;;
74974;SDS011;68459;50.836;19.138;2023-04-06T08:12:39;13.02;;;7.05;;
74974;SDS011;68459;50.836;19.138;2023-04-06T08:15:43;12.05;;;6.78;;
74974;SDS011;68459;50.836;19.138;2023-04-06T08:18:47;9.02;;;5.03;;
74974;SDS011;68459;50.836;19.138;2023-04-06T08:21:51;17.40;;;6.93;;
74974;SDS011;68459;50.836;19.138;2023-04-06T08:24:56;13.50;;;5.93;;
74974;SDS011;68459;50.836;19.138;2023-04-06T08:28:00;9.87;;;5.00;;
74974;SDS011;68459;50.836;19.138;2023-04-06T08:31:04;8.20;;;4.63;;
74974;SDS011;68459;50.836;19.138;2023-04-06T08:34:08;5.65;;;3.15;;
74974;SDS011;68459;50.836;19.138;2023-04-06T08:37:15;9.17;;;3.73;;
74974;SDS011;68459;50.836;19.138;2023-04-06T08:40:20;6.07;;;3.20;;
74974;SDS011;68459;50.836;19.138;2023-04-06T08:43:24;6.60;;;3.63;;
74974;SDS011;68459;50.836;19.138;2023-04-06T08:46:31;6.10;;;2.90;;
74974;SDS011;68459;50.836;19.138;2023-04-06T08:49:35;4.75;;;2.78;;
74974;SDS011;68459;50.836;19.138;2023-04-06T08:52:41;7.43;;;2.70;;
74974;SDS011;68459;50.836;19.138;2023-04-06T08:55:48;7.38;;;3.28;;
74974;SDS011;68459;50.836;19.138;2023-04-06T08:58:54;6.67;;;3.20;;
74974;SDS011;68459;50.836;19.138;2023-04-06T09:01:58;4.63;;;3.00;;
74974;SDS011;68459;50.836;19.138;2023-04-06T09:05:07;6.78;;;2.80;;
74974;SDS011;68459;50.836;19.138;2023-04-06T09:08:12;6.90;;;3.30;;
74974;SDS011;68459;50.836;19.138;2023-04-06T09:11:18;5.53;;;2.88;;
74974;SDS011;68459;50.836;19.138;2023-04-06T09:14:33;6.80;;;3.35;;
74974;SDS011;68459;50.836;19.138;2023-04-06T09:17:39;6.05;;;3.38;;
74974;SDS011;68459;50.836;19.138;2023-04-06T09:20:56;8.43;;;3.45;;
74974;SDS011;68459;50.836;19.138;2023-04-06T09:24:02;6.40;;;3.67;;
74974;SDS011;68459;50.836;19.138;2023-04-06T09:27:10;5.85;;;3.60;;
74974;SDS011;68459;50.836;19.138;2023-04-06T09:30:13;7.10;;;4.10;;
74974;SDS011;68459;50.836;19.138;2023-04-06T09:33:22;6.47;;;3.80;;
74974;SDS011;68459;50.836;19.138;2023-04-06T09:36:29;6.15;;;3.33;;
74974;SDS011;68459;50.836;19.138;2023-04-06T09:39:35;7.47;;;3.00;;
74974;SDS011;68459;50.836;19.138;2023-04-06T09:42:41;5.80;;;3.28;;
74974;SDS011;68459;50.836;19.138;2023-04-06T09:45:46;5.03;;;2.95;;
74974;SDS011;68459;50.836;19.138;2023-04-06T09:48:52;5.30;;;3.38;;
74974;SDS011;68459;50.836;19.138;2023-04-06T09:51:58;10.65;;;3.58;;
74974;SDS011;68459;50.836;19.138;2023-04-06T09:55:05;7.22;;;3.72;;
74974;SDS011;68459;50.836;19.138;2023-04-06T09:58:12;8.45;;;3.85;;
74974;SDS011;68459;50.836;19.138;2023-04-06T10:01:20;6.80;;;3.93;;
74974;SDS011;68459;50.836;19.138;2023-04-06T10:04:32;6.43;;;3.38;;
74974;SDS011;68459;50.836;19.138;2023-04-06T10:07:45;8.00;;;3.83;;
74974;SDS011;68459;50.836;19.138;2023-04-06T10:11:01;7.13;;;3.53;;
74974;SDS011;68459;50.836;19.138;2023-04-06T10:14:09;8.13;;;4.40;;
74974;SDS011;68459;50.836;19.138;2023-04-06T10:17:13;7.60;;;3.78;;
74974;SDS011;68459;50.836;19.138;2023-04-06T10:20:17;7.82;;;4.10;;
74974;SDS011;68459;50.836;19.138;2023-04-06T10:23:29;5.95;;;3.70;;
74974;SDS011;68459;50.836;19.138;2023-04-06T10:26:39;8.63;;;3.70;;
74974;SDS011;68459;50.836;19.138;2023-04-06T10:29:45;6.55;;;3.40;;
74974;SDS011;68459;50.836;19.138;2023-04-06T10:32:51;5.53;;;3.03;;
74974;SDS011;68459;50.836;19.138;2023-04-06T10:35:55;5.03;;;3.00;;
74974;SDS011;68459;50.836;19.138;2023-04-06T10:39:00;5.60;;;3.28;;
74974;SDS011;68459;50.836;19.138;2023-04-06T10:42:06;6.43;;;3.17;;
74974;SDS011;68459;50.836;19.138;2023-04-06T10:45:19;6.72;;;3.58;;
74974;SDS011;68459;50.836;19.138;2023-04-06T10:48:35;9.60;;;3.38;;
74974;SDS011;68459;50.836;19.138;2023-04-06T10:51:41;7.20;;;3.65;;
74974;SDS011;68459;50.836;19.138;2023-04-06T10:54:44;7.55;;;3.45;;
74974;SDS011;68459;50.836;19.138;2023-04-06T10:57:51;6.05;;;3.67;;
74974;SDS011;68459;50.836;19.138;2023-04-06T11:00:56;7.13;;;3.45;;
74974;SDS011;68459;50.836;19.138;2023-04-06T11:04:01;9.57;;;3.30;;
74974;SDS011;68459;50.836;19.138;2023-04-06T11:07:05;7.85;;;4.20;;
74974;SDS011;68459;50.836;19.138;2023-04-06T11:10:09;6.32;;;3.60;;
74974;SDS011;68459;50.836;19.138;2023-04-06T11:13:20;5.83;;;3.40;;
74974;SDS011;68459;50.836;19.138;2023-04-06T11:16:26;4.53;;;3.10;;
74974;SDS011;68459;50.836;19.138;2023-04-06T11:19:32;5.93;;;3.55;;
74974;SDS011;68459;50.836;19.138;2023-04-06T11:22:47;7.35;;;3.55;;
74974;SDS011;68459;50.836;19.138;2023-04-06T11:25:52;7.00;;;3.38;;
74974;SDS011;68459;50.836;19.138;2023-04-06T11:28:57;6.15;;;3.08;;
74974;SDS011;68459;50.836;19.138;2023-04-06T11:32:04;5.10;;;3.22;;
74974;SDS011;68459;50.836;19.138;2023-04-06T11:35:10;8.57;;;3.30;;
74974;SDS011;68459;50.836;19.138;2023-04-06T11:38:22;6.20;;;3.65;;
74974;SDS011;68459;50.836;19.138;2023-04-06T11:41:25;6.03;;;3.72;;
74974;SDS011;68459;50.836;19.138;2023-04-06T11:44:32;5.77;;;3.63;;
74974;SDS011;68459;50.836;19.138;2023-04-06T11:47:38;6.43;;;3.38;;
74974;SDS011;68459;50.836;19.138;2023-04-06T11:50:46;5.70;;;3.55;;
74974;SDS011;68459;50.836;19.138;2023-04-06T11:53:50;6.82;;;3.90;;
74974;SDS011;68459;50.836;19.138;2023-04-06T11:56:54;7.53;;;3.75;;
74974;SDS011;68459;50.836;19.138;2023-04-06T11:59:58;7.15;;;3.80;;
74974;SDS011;68459;50.836;19.138;2023-04-06T12:03:03;7.35;;;4.20;;
74974;SDS011;68459;50.836;19.138;2023-04-06T12:06:07;9.33;;;3.57;;
74974;SDS011;68459;50.836;19.138;2023-04-06T12:09:11;9.93;;;3.88;;
74974;SDS011;68459;50.836;19.138;2023-04-06T12:12:15;7.57;;;4.22;;
74974;SDS011;68459;50.836;19.138;2023-04-06T12:15:18;5.70;;;3.43;;
74974;SDS011;68459;50.836;19.138;2023-04-06T12:18:24;6.80;;;4.35;;
74974;SDS011;68459;50.836;19.138;2023-04-06T12:21:27;6.93;;;3.70;;
74974;SDS011;68459;50.836;19.138;2023-04-06T12:24:32;6.32;;;3.17;;
74974;SDS011;68459;50.836;19.138;2023-04-06T12:27:36;5.72;;;3.65;;
74974;SDS011;68459;50.836;19.138;2023-04-06T12:30:40;6.50;;;3.55;;
74974;SDS011;68459;50.836;19.138;2023-04-06T12:33:47;6.53;;;3.30;;
74974;SDS011;68459;50.836;19.138;2023-04-06T12:36:52;6.00;;;3.30;;
74974;SDS011;68459;50.836;19.138;2023-04-06T12:39:56;6.38;;;3.53;;
74974;SDS011;68459;50.836;19.138;2023-04-06T12:43:00;6.15;;;3.22;;
74974;SDS011;68459;50.836;19.138;2023-04-06T12:46:04;5.30;;;3.50;;
74974;SDS011;68459;50.836;19.138;2023-04-06T12:49:09;5.75;;;3.50;;
74974;SDS011;68459;50.836;19.138;2023-04-06T12:52:13;6.20;;;3.13;;
74974;SDS011;68459;50.836;19.138;2023-04-06T12:55:16;5.90;;;3.25;;
74974;SDS011;68459;50.836;19.138;2023-04-06T12:58:20;4.95;;;3.20;;
74974;SDS011;68459;50.836;19.138;2023-04-06T13:01:25;4.57;;;3.13;;
74974;SDS011;68459;50.836;19.138;2023-04-06T13:04:32;6.05;;;3.20;;
74974;SDS011;68459;50.836;19.138;2023-04-06T13:07:36;6.47;;;3.10;;
74974;SDS011;68459;50.836;19.138;2023-04-06T13:10:42;7.07;;;3.40;;
74974;SDS011;68459;50.836;19.138;2023-04-06T13:13:46;7.20;;;3.63;;
74974;SDS011;68459;50.836;19.138;2023-04-06T13:16:50;6.83;;;3.10;;
74974;SDS011;68459;50.836;19.138;2023-04-06T13:19:55;6.15;;;3.25;;
74974;SDS011;68459;50.836;19.138;2023-04-06T13:22:59;5.65;;;3.50;;
74974;SDS011;68459;50.836;19.138;2023-04-06T13:26:05;6.32;;;3.38;;
74974;SDS011;68459;50.836;19.138;2023-04-06T13:29:10;4.82;;;2.88;;
74974;SDS011;68459;50.836;19.138;2023-04-06T13:32:14;5.95;;;3.22;;
74974;SDS011;68459;50.836;19.138;2023-04-06T13:35:20;4.72;;;3.22;;
74974;SDS011;68459;50.836;19.138;2023-04-06T13:38:24;6.30;;;3.20;;
74974;SDS011;68459;50.836;19.138;2023-04-06T13:41:28;5.63;;;3.58;;
74974;SDS011;68459;50.836;19.138;2023-04-06T13:44:32;7.88;;;4.03;;
74974;SDS011;68459;50.836;19.138;2023-04-06T13:47:36;6.13;;;3.67;;
74974;SDS011;68459;50.836;19.138;2023-04-06T13:50:41;5.45;;;3.53;;
74974;SDS011;68459;50.836;19.138;2023-04-06T13:53:46;5.43;;;3.40;;
74974;SDS011;68459;50.836;19.138;2023-04-06T13:56:52;10.30;;;5.03;;
74974;SDS011;68459;50.836;19.138;2023-04-06T13:59:55;8.05;;;4.18;;
74974;SDS011;68459;50.836;19.138;2023-04-06T14:03:00;6.47;;;3.78;;
74974;SDS011;68459;50.836;19.138;2023-04-06T14:06:10;6.07;;;3.75;;
74974;SDS011;68459;50.836;19.138;2023-04-06T14:09:31;7.80;;;4.03;;
74974;SDS011;68459;50.836;19.138;2023-04-06T14:12:36;8.45;;;4.25;;
74974;SDS011;68459;50.836;19.138;2023-04-06T14:15:40;6.55;;;3.70;;
74974;SDS011;68459;50.836;19.138;2023-04-06T14:18:43;8.67;;;3.60;;
74974;SDS011;68459;50.836;19.138;2023-04-06T14:21:48;8.00;;;4.13;;
74974;SDS011;68459;50.836;19.138;2023-04-06T14:24:52;7.43;;;4.35;;
74974;SDS011;68459;50.836;19.138;2023-04-06T14:27:56;9.20;;;5.00;;
74974;SDS011;68459;50.836;19.138;2023-04-06T14:31:00;6.93;;;4.28;;
74974;SDS011;68459;50.836;19.138;2023-04-06T14:34:06;7.35;;;4.22;;
74974;SDS011;68459;50.836;19.138;2023-04-06T14:37:11;6.57;;;4.68;;
74974;SDS011;68459;50.836;19.138;2023-04-06T14:40:15;6.93;;;3.83;;
74974;SDS011;68459;50.836;19.138;2023-04-06T14:43:19;7.72;;;4.05;;
74974;SDS011;68459;50.836;19.138;2023-04-06T14:46:23;6.97;;;4.15;;
74974;SDS011;68459;50.836;19.138;2023-04-06T14:49:27;10.27;;;4.63;;
74974;SDS011;68459;50.836;19.138;2023-04-06T14:52:32;9.68;;;4.53;;
74974;SDS011;68459;50.836;19.138;2023-04-06T14:55:38;8.60;;;4.72;;
74974;SDS011;68459;50.836;19.138;2023-04-06T14:58:43;7.78;;;4.53;;
74974;SDS011;68459;50.836;19.138;2023-04-06T15:01:47;6.95;;;4.85;;
74974;SDS011;68459;50.836;19.138;2023-04-06T15:04:51;8.38;;;4.72;;
74974;SDS011;68459;50.836;19.138;2023-04-06T15:07:57;10.52;;;5.00;;
74974;SDS011;68459;50.836;19.138;2023-04-06T15:11:01;8.30;;;4.80;;
74974;SDS011;68459;50.836;19.138;2023-04-06T15:14:05;8.75;;;5.05;;
74974;SDS011;68459;50.836;19.138;2023-04-06T15:17:09;7.18;;;4.75;;
74974;SDS011;68459;50.836;19.138;2023-04-06T15:20:13;9.60;;;5.87;;
74974;SDS011;68459;50.836;19.138;2023-04-06T15:23:19;12.13;;;6.05;;
74974;SDS011;68459;50.836;19.138;2023-04-06T15:26:23;11.63;;;6.20;;
74974;SDS011;68459;50.836;19.138;2023-04-06T15:29:29;10.98;;;6.13;;
74974;SDS011;68459;50.836;19.138;2023-04-06T15:32:34;9.02;;;5.95;;
74974;SDS011;68459;50.836;19.138;2023-04-06T15:35:38;7.97;;;5.72;;
74974;SDS011;68459;50.836;19.138;2023-04-06T15:38:45;10.15;;;6.30;;
74974;SDS011;68459;50.836;19.138;2023-04-06T15:41:49;19.60;;;9.80;;
74974;SDS011;68459;50.836;19.138;2023-04-06T15:44:52;15.20;;;7.45;;
74974;SDS011;68459;50.836;19.138;2023-04-06T15:47:56;8.88;;;5.03;;
74974;SDS011;68459;50.836;19.138;2023-04-06T15:51:00;9.43;;;5.37;;
74974;SDS011;68459;50.836;19.138;2023-04-06T15:54:05;11.23;;;5.43;;
74974;SDS011;68459;50.836;19.138;2023-04-06T15:57:09;8.52;;;5.60;;
74974;SDS011;68459;50.836;19.138;2023-04-06T16:00:13;11.27;;;5.95;;
74974;SDS011;68459;50.836;19.138;2023-04-06T16:03:18;9.02;;;5.72;;
74974;SDS011;68459;50.836;19.138;2023-04-06T16:06:23;10.65;;;5.95;;
74974;SDS011;68459;50.836;19.138;2023-04-06T16:09:29;8.18;;;5.82;;
74974;SDS011;68459;50.836;19.138;2023-04-06T16:12:33;10.17;;;6.20;;
74974;SDS011;68459;50.836;19.138;2023-04-06T16:15:37;10.63;;;6.35;;
74974;SDS011;68459;50.836;19.138;2023-04-06T16:18:41;9.65;;;6.53;;
74974;SDS011;68459;50.836;19.138;2023-04-06T16:21:45;9.73;;;6.30;;
74974;SDS011;68459;50.836;19.138;2023-04-06T16:24:51;9.32;;;5.50;;
74974;SDS011;68459;50.836;19.138;2023-04-06T16:27:55;8.48;;;5.63;;
74974;SDS011;68459;50.836;19.138;2023-04-06T16:30:58;10.82;;;6.82;;
74974;SDS011;68459;50.836;19.138;2023-04-06T16:34:02;10.60;;;6.90;;
74974;SDS011;68459;50.836;19.138;2023-04-06T16:37:06;11.85;;;7.80;;
74974;SDS011;68459;50.836;19.138;2023-04-06T16:40:12;11.45;;;7.55;;
74974;SDS011;68459;50.836;19.138;2023-04-06T16:43:16;13.30;;;8.13;;
74974;SDS011;68459;50.836;19.138;2023-04-06T16:46:20;11.63;;;7.63;;
74974;SDS011;68459;50.836;19.138;2023-04-06T16:49:23;13.82;;;8.02;;
74974;SDS011;68459;50.836;19.138;2023-04-06T16:52:27;11.33;;;7.23;;
74974;SDS011;68459;50.836;19.138;2023-04-06T16:55:32;13.65;;;7.70;;
74974;SDS011;68459;50.836;19.138;2023-04-06T16:58:36;13.45;;;7.45;;
74974;SDS011;68459;50.836;19.138;2023-04-06T17:01:40;12.32;;;6.72;;
74974;SDS011;68459;50.836;19.138;2023-04-06T17:04:44;9.60;;;6.20;;
74974;SDS011;68459;50.836;19.138;2023-04-06T17:07:48;14.15;;;6.82;;
74974;SDS011;68459;50.836;19.138;2023-04-06T17:10:54;11.70;;;6.55;;
74974;SDS011;68459;50.836;19.138;2023-04-06T17:14:04;10.80;;;6.00;;
74974;SDS011;68459;50.836;19.138;2023-04-06T17:17:08;11.60;;;7.18;;
74974;SDS011;68459;50.836;19.138;2023-04-06T17:20:12;12.27;;;7.53;;
74974;SDS011;68459;50.836;19.138;2023-04-06T17:23:16;13.67;;;8.17;;
74974;SDS011;68459;50.836;19.138;2023-04-06T17:26:21;9.40;;;6.57;;
74974;SDS011;68459;50.836;19.138;2023-04-06T17:29:24;12.32;;;7.30;;
74974;SDS011;68459;50.836;19.138;2023-04-06T17:32:28;12.35;;;7.00;;
74974;SDS011;68459;50.836;19.138;2023-04-06T17:35:32;15.98;;;8.20;;
74974;SDS011;68459;50.836;19.138;2023-04-06T17:38:37;14.68;;;8.13;;
74974;SDS011;68459;50.836;19.138;2023-04-06T17:41:46;13.63;;;8.38;;
74974;SDS011;68459;50.836;19.138;2023-04-06T17:44:50;14.50;;;7.83;;
74974;SDS011;68459;50.836;19.138;2023-04-06T17:47:54;14.38;;;7.53;;
74974;SDS011;68459;50.836;19.138;2023-04-06T17:50:58;12.85;;;7.53;;
74974;SDS011;68459;50.836;19.138;2023-04-06T17:54:02;12.83;;;7.53;;
74974;SDS011;68459;50.836;19.138;2023-04-06T17:57:07;10.73;;;7.78;;
74974;SDS011;68459;50.836;19.138;2023-04-06T18:00:11;13.80;;;8.27;;
74974;SDS011;68459;50.836;19.138;2023-04-06T18:03:19;15.15;;;8.98;;
74974;SDS011;68459;50.836;19.138;2023-04-06T18:06:23;14.10;;;8.47;;
74974;SDS011;68459;50.836;19.138;2023-04-06T18:09:29;16.15;;;9.93;;